createdAt,value
2023-03-22T00:00:07.226Z,4.82
2023-03-22T00:02:36.973Z,4.55
2023-03-22T00:05:05.454Z,4.18
2023-03-22T00:07:33.767Z,4.22
2023-03-22T00:10:02.308Z,4.55
2023-03-22T00:12:30.651Z,4.38
2023-03-22T00:15:00.116Z,4.93
2023-03-22T00:17:28.512Z,4.32
2023-03-22T00:19:58.384Z,4.95
2023-03-22T00:22:27.259Z,4.47
2023-03-22T00:24:55.583Z,5.03
2023-03-22T00:27:23.895Z,4.40
2023-03-22T00:29:53.390Z,4.68
2023-03-22T00:32:21.709Z,5.22
2023-03-22T00:34:50.099Z,5.07
2023-03-22T00:37:19.732Z,5.50
2023-03-22T00:39:48.053Z,7.60
2023-03-22T00:42:16.403Z,7.60
2023-03-22T00:44:44.822Z,7.10
2023-03-22T00:47:13.327Z,6.40
2023-03-22T00:49:41.773Z,5.78
2023-03-22T00:52:10.093Z,5.35
2023-03-22T00:54:39.868Z,5.30
2023-03-22T00:57:08.580Z,5.22
2023-03-22T00:59:38.617Z,5.30
2023-03-22T01:02:07.144Z,5.00
2023-03-22T01:04:35.779Z,4.78
2023-03-22T01:07:07.719Z,6.10
2023-03-22T01:09:36.151Z,5.30
2023-03-22T01:12:05.944Z,4.65
2023-03-22T01:14:34.330Z,4.18
2023-03-22T01:17:02.712Z,5.38
2023-03-22T01:19:31.203Z,5.13
2023-03-22T01:21:59.521Z,5.20
2023-03-22T01:24:27.879Z,5.20
2023-03-22T01:26:56.330Z,6.05
2023-03-22T01:29:26.029Z,5.45
2023-03-22T01:31:54.562Z,5.25
2023-03-22T01:34:23.449Z,5.15
2023-03-22T01:36:51.764Z,5.30
2023-03-22T01:39:20.102Z,4.78
2023-03-22T01:41:48.505Z,4.82
2023-03-22T01:44:17.585Z,5.05
2023-03-22T01:46:47.977Z,6.00
2023-03-22T01:49:17.862Z,7.00
2023-03-22T01:51:48.403Z,8.13
2023-03-22T01:54:18.812Z,6.95
2023-03-22T01:56:47.424Z,6.25
2023-03-22T01:59:16.816Z,6.05
2023-03-22T02:01:46.967Z,6.10
2023-03-22T02:04:19.999Z,6.50
2023-03-22T02:06:49.087Z,6.10
2023-03-22T02:09:21.966Z,6.90
2023-03-22T02:11:53.384Z,8.07
2023-03-22T02:14:30.761Z,8.43
2023-03-22T02:17:03.128Z,7.85
2023-03-22T02:19:49.420Z,8.48
2023-03-22T02:22:25.888Z,9.13
2023-03-22T02:24:59.839Z,9.20
2023-03-22T02:27:31.721Z,8.52
2023-03-22T02:30:11.578Z,6.90
2023-03-22T02:33:05.236Z,7.53
2023-03-22T02:35:38.962Z,6.50
2023-03-22T02:38:16.718Z,7.72
2023-03-22T02:40:49.401Z,6.75
2023-03-22T02:43:20.653Z,6.78
2023-03-22T02:45:50.920Z,7.30
2023-03-22T02:48:21.783Z,7.18
2023-03-22T02:50:54.284Z,6.72
2023-03-22T02:53:24.198Z,7.53
2023-03-22T02:55:57.093Z,7.40
2023-03-22T02:58:29.239Z,6.90
2023-03-22T03:00:59.511Z,7.68
2023-03-22T03:03:29.369Z,7.20
2023-03-22T03:05:59.872Z,7.57
2023-03-22T03:08:29.154Z,7.93
2023-03-22T03:10:58.915Z,7.38
2023-03-22T03:13:27.200Z,7.82
2023-03-22T03:15:59.221Z,7.78
2023-03-22T03:18:34.896Z,7.38
2023-03-22T03:21:04.845Z,8.38
2023-03-22T03:23:39.006Z,7.72
2023-03-22T03:26:16.584Z,7.90
2023-03-22T03:28:49.776Z,6.85
2023-03-22T03:31:23.318Z,7.80
2023-03-22T03:33:57.020Z,8.35
2023-03-22T03:36:26.561Z,8.30
2023-03-22T03:38:56.460Z,8.95
2023-03-22T03:41:27.849Z,9.05
2023-03-22T03:43:58.248Z,7.85
2023-03-22T03:46:26.789Z,7.75
2023-03-22T03:48:57.473Z,7.78
2023-03-22T03:51:26.050Z,8.90
2023-03-22T03:53:54.404Z,8.45
2023-03-22T03:56:22.788Z,8.80
2023-03-22T03:58:52.407Z,8.23
2023-03-22T04:01:21.486Z,8.70
2023-03-22T04:03:50.827Z,8.55
2023-03-22T04:06:19.261Z,8.70
2023-03-22T04:08:53.406Z,8.38
2023-03-22T04:11:21.794Z,8.60
2023-03-22T04:13:50.296Z,8.50
2023-03-22T04:16:19.966Z,8.05
2023-03-22T04:18:48.374Z,8.98
2023-03-22T04:21:16.712Z,9.13
2023-03-22T04:23:46.674Z,9.50
2023-03-22T04:26:15.410Z,9.48
2023-03-22T04:28:43.693Z,9.57
2023-03-22T04:31:12.130Z,9.32
2023-03-22T04:33:46.823Z,8.70
2023-03-22T04:36:17.485Z,9.73
2023-03-22T04:38:45.987Z,10.13
2023-03-22T04:41:14.291Z,9.27
2023-03-22T04:43:42.590Z,9.88
2023-03-22T04:46:12.630Z,8.90
2023-03-22T04:48:43.282Z,9.85
2023-03-22T04:51:12.475Z,9.43
2023-03-22T04:53:40.859Z,9.25
2023-03-22T04:56:10.569Z,8.93
2023-03-22T04:58:39.986Z,9.77
2023-03-22T05:01:09.213Z,8.73
2023-03-22T05:03:37.549Z,9.25
2023-03-22T05:06:08.950Z,8.95
2023-03-22T05:08:37.972Z,8.70
2023-03-22T05:11:07.931Z,8.35
2023-03-22T05:13:37.383Z,9.63
2023-03-22T05:16:06.412Z,9.07
2023-03-22T05:18:34.832Z,10.00
2023-03-22T05:21:06.805Z,9.63
2023-03-22T05:23:36.639Z,9.13
2023-03-22T05:26:04.957Z,8.85
2023-03-22T05:28:33.288Z,9.45
2023-03-22T05:31:01.878Z,9.38
2023-03-22T05:33:30.466Z,11.60
2023-03-22T05:35:58.813Z,10.15
2023-03-22T05:38:27.428Z,9.90
2023-03-22T05:40:57.103Z,9.52
2023-03-22T05:43:25.649Z,9.00
2023-03-22T05:45:53.974Z,9.60
2023-03-22T05:48:22.294Z,9.27
2023-03-22T05:50:50.667Z,8.98
2023-03-22T05:53:19.064Z,9.32
2023-03-22T05:55:47.362Z,9.02
2023-03-22T05:58:19.104Z,8.85
2023-03-22T06:00:49.956Z,9.40
2023-03-22T06:03:18.478Z,9.18
2023-03-22T06:05:50.743Z,8.35
2023-03-22T06:08:30.553Z,8.93
2023-03-22T06:10:59.270Z,8.75
2023-03-22T06:13:28.945Z,8.82
2023-03-22T06:15:57.344Z,8.90
2023-03-22T06:18:25.675Z,8.57
2023-03-22T06:20:54.113Z,8.50
2023-03-22T06:23:22.496Z,8.38
2023-03-22T06:25:50.828Z,8.48
2023-03-22T06:28:19.100Z,8.48
2023-03-22T06:30:48.751Z,8.30
2023-03-22T06:33:17.126Z,9.18
2023-03-22T06:35:45.416Z,8.43
2023-03-22T06:38:13.720Z,8.25
2023-03-22T06:40:43.664Z,8.45
2023-03-22T06:43:14.947Z,7.65
2023-03-22T06:45:43.325Z,8.43
2023-03-22T06:48:13.029Z,7.85
2023-03-22T06:50:44.175Z,7.82
2023-03-22T06:53:12.631Z,7.95
2023-03-22T06:55:40.937Z,8.05
2023-03-22T06:58:09.554Z,7.60
2023-03-22T07:00:38.972Z,7.70
2023-03-22T07:03:07.419Z,7.95
2023-03-22T07:05:37.001Z,8.20
2023-03-22T07:08:05.280Z,7.63
2023-03-22T07:10:33.562Z,7.53
2023-03-22T07:13:04.111Z,8.38
2023-03-22T07:15:35.573Z,7.90
2023-03-22T07:18:03.869Z,7.43
2023-03-22T07:20:34.031Z,7.00
2023-03-22T07:23:03.839Z,7.38
2023-03-22T07:25:32.101Z,8.30
2023-03-22T07:28:01.270Z,7.45
2023-03-22T07:30:29.577Z,8.13
2023-03-22T07:32:57.840Z,7.32
2023-03-22T07:35:27.034Z,7.03
2023-03-22T07:37:55.361Z,7.68
2023-03-22T07:40:25.472Z,6.85
2023-03-22T07:42:55.773Z,7.18
2023-03-22T07:45:24.611Z,6.50
2023-03-22T07:47:52.997Z,6.45
2023-03-22T07:50:21.278Z,6.38
2023-03-22T07:52:49.648Z,6.30
2023-03-22T07:55:17.880Z,6.32
2023-03-22T07:57:47.590Z,5.78
2023-03-22T08:00:17.276Z,5.80
2023-03-22T08:02:46.298Z,5.43
2023-03-22T08:05:14.541Z,6.22
2023-03-22T08:07:43.153Z,5.93
2023-03-22T08:10:11.678Z,5.47
2023-03-22T08:12:39.932Z,4.95
2023-03-22T08:15:10.706Z,5.00
2023-03-22T08:17:38.991Z,4.55
2023-03-22T08:20:08.689Z,4.63
2023-03-22T08:22:37.268Z,4.40
2023-03-22T08:25:05.718Z,4.88
2023-03-22T08:27:33.992Z,4.10
2023-03-22T08:30:02.668Z,3.97
2023-03-22T08:32:32.292Z,4.38
2023-03-22T08:35:00.601Z,4.70
2023-03-22T08:37:28.960Z,4.25
2023-03-22T08:39:57.366Z,4.20
2023-03-22T08:42:25.614Z,4.20
2023-03-22T08:44:53.871Z,4.10
2023-03-22T08:47:22.220Z,3.60
2023-03-22T08:49:51.849Z,3.22
2023-03-22T08:52:20.400Z,2.92
2023-03-22T08:54:48.938Z,3.58
2023-03-22T08:57:17.196Z,2.92
2023-03-22T08:59:45.534Z,2.67
2023-03-22T09:02:13.968Z,2.95
2023-03-22T09:04:42.284Z,2.75
2023-03-22T09:07:11.908Z,2.70
2023-03-22T09:09:40.190Z,2.60
2023-03-22T09:12:08.717Z,2.58
2023-03-22T09:14:37.454Z,3.03
2023-03-22T09:17:06.189Z,2.83
2023-03-22T09:19:35.297Z,2.70
2023-03-22T09:22:04.175Z,2.42
2023-03-22T09:24:33.755Z,2.65
2023-03-22T09:27:02.028Z,1.77
2023-03-22T09:29:30.319Z,2.10
2023-03-22T09:31:58.563Z,1.80
2023-03-22T09:34:27.119Z,1.83
2023-03-22T09:36:57.450Z,1.40
2023-03-22T09:39:28.733Z,1.70
2023-03-22T09:42:01.143Z,1.50
2023-03-22T09:44:32.275Z,1.20
2023-03-22T09:47:02.177Z,1.23
2023-03-22T09:49:38.442Z,1.13
2023-03-22T09:52:13.797Z,1.30
2023-03-22T09:54:42.667Z,1.08
2023-03-22T09:57:16.867Z,0.90
2023-03-22T09:59:48.906Z,1.30
2023-03-22T10:02:26.431Z,1.13
2023-03-22T10:04:59.818Z,1.08
2023-03-22T10:07:30.130Z,1.20
2023-03-22T10:10:03.436Z,0.98
2023-03-22T10:12:36.211Z,1.38
2023-03-22T10:15:07.434Z,1.13
2023-03-22T10:17:37.157Z,1.38
2023-03-22T10:20:08.339Z,1.08
2023-03-22T10:22:38.101Z,0.98
2023-03-22T10:25:07.842Z,0.90
2023-03-22T10:27:39.719Z,1.20
2023-03-22T10:30:09.979Z,1.38
2023-03-22T10:32:56.422Z,1.27
2023-03-22T10:35:25.703Z,1.60
2023-03-22T10:37:54.525Z,1.20
2023-03-22T10:40:26.210Z,1.00
2023-03-22T10:42:56.651Z,0.95
2023-03-22T10:45:25.944Z,1.10
2023-03-22T10:48:00.049Z,1.02
2023-03-22T10:50:30.903Z,1.40
2023-03-22T10:53:03.144Z,1.00
2023-03-22T10:55:31.445Z,1.40
2023-03-22T10:58:14.194Z,0.98
2023-03-22T11:00:45.623Z,1.25
2023-03-22T11:03:24.707Z,1.13
2023-03-22T11:05:59.857Z,1.30
2023-03-22T11:08:28.195Z,1.20
2023-03-22T11:11:00.296Z,1.13
2023-03-22T11:13:30.599Z,1.50
2023-03-22T11:16:04.291Z,1.45
2023-03-22T11:21:02.359Z,1.02
2023-03-22T11:23:33.146Z,1.40
2023-03-22T11:26:02.502Z,1.45
2023-03-22T11:28:36.101Z,1.50
2023-03-22T11:31:06.689Z,1.38
2023-03-22T11:33:35.159Z,2.10
2023-03-22T11:36:04.422Z,1.65
2023-03-22T11:38:37.003Z,1.10
2023-03-22T11:41:06.129Z,1.42
2023-03-22T11:43:36.995Z,1.38
2023-03-22T11:46:06.164Z,1.40
2023-03-22T11:48:34.793Z,1.30
2023-03-22T11:51:07.508Z,1.30
2023-03-22T11:53:37.051Z,1.48
2023-03-22T11:56:07.497Z,1.42
2023-03-22T11:58:49.683Z,1.45
2023-03-22T12:01:21.247Z,1.48
2023-03-22T12:03:52.560Z,1.73
2023-03-22T12:06:22.748Z,1.45
2023-03-22T12:08:53.022Z,1.30
2023-03-22T12:11:26.681Z,1.40
2023-03-22T12:16:26.586Z,1.30
2023-03-22T12:19:03.631Z,1.30
2023-03-22T12:21:32.263Z,1.08
2023-03-22T12:24:05.274Z,1.08
2023-03-22T12:26:35.173Z,1.40
2023-03-22T12:29:05.740Z,1.23
2023-03-22T12:31:38.190Z,1.20
2023-03-22T12:34:08.153Z,0.98
2023-03-22T12:36:39.145Z,1.23
2023-03-22T12:39:08.945Z,1.15
2023-03-22T12:41:38.885Z,1.20
2023-03-22T12:44:14.644Z,1.58
2023-03-22T12:46:49.252Z,0.90
2023-03-22T12:49:22.724Z,1.00
2023-03-22T12:51:52.083Z,1.10
2023-03-22T12:54:21.189Z,1.10
2023-03-22T12:56:50.011Z,0.90
2023-03-22T12:59:19.646Z,1.10
2023-03-22T13:01:53.148Z,1.00
2023-03-22T13:04:29.090Z,1.10
2023-03-22T13:06:58.311Z,0.88
2023-03-22T13:09:40.616Z,0.80
2023-03-22T13:12:28.937Z,0.75
2023-03-22T13:15:00.352Z,1.23
2023-03-22T13:17:40.994Z,1.00
2023-03-22T13:20:25.677Z,0.73
2023-03-22T13:23:01.453Z,0.80
2023-03-22T13:25:32.797Z,0.80
2023-03-22T13:28:03.304Z,0.50
2023-03-22T13:30:36.477Z,0.70
2023-03-22T13:33:16.050Z,0.98
2023-03-22T13:35:46.576Z,0.95
2023-03-22T13:38:21.854Z,1.13
2023-03-22T13:41:07.409Z,0.80
2023-03-22T13:43:36.950Z,0.57
2023-03-22T13:46:13.960Z,0.65
2023-03-22T13:48:45.642Z,0.80
2023-03-22T13:51:16.198Z,0.68
2023-03-22T13:53:49.930Z,0.70
2023-03-22T13:56:29.496Z,0.80
2023-03-22T13:58:58.934Z,0.70
2023-03-22T14:01:30.089Z,0.55
2023-03-22T14:04:02.296Z,0.60
2023-03-22T14:06:33.725Z,0.90
2023-03-22T14:09:04.682Z,0.75
2023-03-22T14:11:40.552Z,0.70
2023-03-22T14:14:13.122Z,0.70
2023-03-22T14:16:43.114Z,0.70
2023-03-22T14:19:18.274Z,0.55
